createdAt,value
2023-03-06T00:01:09.887Z,11.35
2023-03-06T00:04:15.431Z,11.73
2023-03-06T00:07:19.965Z,10.65
2023-03-06T00:10:27.337Z,13.55
2023-03-06T00:13:32.081Z,11.35
2023-03-06T00:16:36.695Z,9.18
2023-03-06T00:19:44.274Z,10.73
2023-03-06T00:22:49.328Z,10.15
2023-03-06T00:25:53.794Z,13.18
2023-03-06T00:28:58.294Z,11.30
2023-03-06T00:32:02.947Z,8.23
2023-03-06T00:35:09.029Z,10.23
2023-03-06T00:38:13.700Z,14.35
2023-03-06T00:41:18.272Z,7.85
2023-03-06T00:44:22.816Z,8.38
2023-03-06T00:47:27.463Z,9.98
2023-03-06T00:50:32.250Z,10.25
2023-03-06T00:53:37.594Z,11.43
2023-03-06T00:56:42.185Z,7.00
2023-03-06T00:59:46.772Z,10.60
2023-03-06T01:02:53.558Z,11.93
2023-03-06T01:05:59.775Z,9.32
2023-03-06T01:09:05.303Z,13.57
2023-03-06T01:12:10.070Z,8.02
2023-03-06T01:15:14.741Z,11.35
2023-03-06T01:18:21.035Z,10.88
2023-03-06T01:21:25.625Z,10.18
2023-03-06T01:24:30.243Z,9.57
2023-03-06T01:27:34.771Z,6.95
2023-03-06T01:30:39.834Z,11.02
2023-03-06T01:33:44.396Z,9.35
2023-03-06T01:36:48.945Z,9.02
2023-03-06T01:39:55.475Z,7.53
2023-03-06T01:43:09.594Z,7.72
2023-03-06T01:46:26.209Z,8.68
2023-03-06T01:49:38.105Z,8.38
2023-03-06T01:52:56.290Z,10.07
2023-03-06T01:56:00.944Z,9.23
2023-03-06T01:59:07.391Z,10.68
2023-03-06T02:02:13.957Z,11.02
2023-03-06T02:05:18.924Z,10.07
2023-03-06T02:08:24.453Z,10.65
2023-03-06T02:11:29.354Z,12.05
2023-03-06T02:14:34.091Z,8.90
2023-03-06T02:17:39.538Z,9.68
2023-03-06T02:20:48.685Z,12.75
2023-03-06T02:24:11.805Z,11.98
2023-03-06T02:27:18.026Z,10.48
2023-03-06T02:30:26.013Z,12.80
2023-03-06T02:33:30.618Z,12.77
2023-03-06T02:36:45.333Z,18.42
2023-03-06T02:39:58.851Z,17.65
2023-03-06T02:43:05.309Z,11.60
2023-03-06T02:46:10.228Z,13.48
2023-03-06T02:49:14.810Z,17.63
2023-03-06T02:52:19.411Z,12.00
2023-03-06T02:55:24.201Z,13.75
2023-03-06T02:58:31.154Z,14.95
2023-03-06T03:01:36.672Z,11.05
2023-03-06T03:04:41.373Z,14.57
2023-03-06T03:07:48.010Z,13.50
2023-03-06T03:10:52.589Z,15.88
2023-03-06T03:13:57.665Z,12.18
2023-03-06T03:17:06.412Z,14.38
2023-03-06T03:20:15.105Z,18.50
2023-03-06T03:23:21.842Z,16.73
2023-03-06T03:26:26.382Z,12.88
2023-03-06T03:29:37.245Z,10.02
2023-03-06T03:32:41.755Z,12.38
2023-03-06T03:35:56.858Z,12.10
2023-03-06T03:39:03.303Z,12.27
2023-03-06T03:42:09.311Z,9.13
2023-03-06T03:45:13.898Z,14.80
2023-03-06T03:48:20.365Z,12.05
2023-03-06T03:51:25.092Z,10.07
2023-03-06T03:54:31.937Z,12.90
2023-03-06T03:57:39.136Z,10.98
2023-03-06T04:00:45.620Z,12.40
2023-03-06T04:03:52.382Z,11.73
2023-03-06T04:06:57.246Z,12.38
2023-03-06T04:10:02.008Z,16.20
2023-03-06T04:13:09.980Z,14.02
2023-03-06T04:16:17.878Z,15.82
2023-03-06T04:19:23.049Z,14.65
2023-03-06T04:22:28.382Z,16.02
2023-03-06T04:25:33.212Z,13.68
2023-03-06T04:28:40.155Z,14.60
2023-03-06T04:31:44.787Z,11.05
2023-03-06T04:34:49.755Z,12.40
2023-03-06T04:37:55.538Z,11.95
2023-03-06T04:41:03.023Z,11.07
2023-03-06T04:44:07.623Z,8.13
2023-03-06T04:47:12.930Z,14.02
2023-03-06T04:50:18.137Z,16.67
2023-03-06T04:53:24.145Z,14.27
2023-03-06T04:56:28.610Z,15.50
2023-03-06T04:59:33.100Z,11.63
2023-03-06T05:02:37.672Z,11.10
2023-03-06T05:05:42.770Z,13.50
2023-03-06T05:08:47.694Z,13.75
2023-03-06T05:11:52.216Z,11.52
2023-03-06T05:14:58.119Z,13.50
2023-03-06T05:18:02.709Z,15.02
2023-03-06T05:21:07.568Z,15.02
2023-03-06T05:24:12.060Z,15.52
2023-03-06T05:27:16.997Z,17.48
2023-03-06T05:30:23.080Z,14.40
2023-03-06T05:33:27.702Z,13.63
2023-03-06T05:36:32.207Z,15.00
2023-03-06T05:39:36.746Z,12.77
2023-03-06T05:42:41.554Z,12.35
2023-03-06T05:45:46.151Z,14.65
2023-03-06T05:48:53.058Z,12.30
2023-03-06T05:51:57.621Z,15.68
2023-03-06T05:55:03.104Z,13.30
2023-03-06T05:58:07.603Z,11.40
2023-03-06T06:01:17.592Z,11.85
2023-03-06T06:04:24.111Z,13.32
2023-03-06T06:07:28.730Z,18.63
2023-03-06T06:10:36.218Z,19.98
2023-03-06T06:13:41.836Z,14.10
2023-03-06T06:16:46.479Z,18.98
2023-03-06T06:19:50.989Z,14.55
2023-03-06T06:22:57.232Z,13.05
2023-03-06T06:26:06.687Z,12.65
2023-03-06T06:29:12.889Z,16.60
2023-03-06T06:32:17.435Z,14.27
2023-03-06T06:35:22.328Z,10.57
2023-03-06T06:38:26.822Z,12.93
2023-03-06T06:41:46.581Z,14.90
2023-03-06T06:44:56.014Z,16.02
2023-03-06T06:48:00.617Z,12.63
2023-03-06T06:51:05.621Z,12.55
2023-03-06T06:54:12.109Z,13.60
2023-03-06T06:57:17.058Z,14.20
2023-03-06T07:00:21.981Z,15.63
2023-03-06T07:03:28.199Z,13.80
2023-03-06T07:06:32.739Z,13.00
2023-03-06T07:09:39.714Z,14.73
2023-03-06T07:12:44.346Z,13.88
2023-03-06T07:15:48.858Z,14.75
2023-03-06T07:18:53.426Z,15.25
2023-03-06T07:22:00.172Z,14.38
2023-03-06T07:25:05.738Z,15.48
2023-03-06T07:28:10.264Z,13.68
2023-03-06T07:31:15.258Z,14.02
2023-03-06T07:34:19.809Z,12.18
2023-03-06T07:37:24.330Z,19.38
2023-03-06T07:40:28.813Z,14.77
2023-03-06T07:43:35.045Z,17.17
2023-03-06T07:46:43.990Z,12.68
2023-03-06T07:49:48.554Z,14.07
2023-03-06T07:52:54.087Z,16.02
2023-03-06T07:55:58.950Z,17.02
2023-03-06T07:59:03.506Z,13.32
2023-03-06T08:02:10.890Z,20.27
2023-03-06T08:05:16.808Z,18.05
2023-03-06T08:08:22.087Z,16.85
2023-03-06T08:11:29.836Z,20.23
2023-03-06T08:14:35.173Z,16.73
2023-03-06T08:17:39.766Z,21.88
2023-03-06T08:20:44.344Z,15.38
2023-03-06T08:23:49.463Z,20.15
2023-03-06T08:26:53.972Z,19.25
2023-03-06T08:29:59.316Z,19.02
2023-03-06T08:33:03.850Z,15.77
2023-03-06T08:36:08.573Z,24.40
2023-03-06T08:39:14.096Z,21.73
2023-03-06T08:42:18.594Z,18.45
2023-03-06T08:45:23.193Z,27.92
2023-03-06T08:48:28.293Z,22.75
2023-03-06T08:51:33.153Z,21.75
2023-03-06T08:54:39.201Z,27.38
2023-03-06T08:57:43.747Z,18.80
2023-03-06T09:00:48.893Z,22.20
2023-03-06T09:03:55.309Z,20.45
2023-03-06T09:07:00.921Z,22.90
2023-03-06T09:10:05.948Z,25.23
2023-03-06T09:13:10.547Z,23.75
2023-03-06T09:16:15.634Z,23.90
2023-03-06T09:19:22.104Z,24.52
2023-03-06T09:22:26.578Z,25.73
2023-03-06T09:25:31.344Z,31.30
2023-03-06T09:28:38.856Z,22.88
2023-03-06T09:31:44.179Z,26.10
2023-03-06T09:34:49.190Z,20.75
2023-03-06T09:37:55.127Z,21.10
2023-03-06T09:41:02.467Z,21.10
2023-03-06T09:44:22.732Z,23.88
2023-03-06T09:47:32.966Z,19.95
2023-03-06T09:50:50.518Z,18.58
2023-03-06T09:54:15.237Z,17.83
2023-03-06T09:57:26.726Z,20.45
2023-03-06T10:00:41.475Z,25.35
2023-03-06T10:04:05.096Z,18.45
2023-03-06T10:07:38.922Z,21.25
2023-03-06T10:11:02.469Z,21.10
2023-03-06T10:14:37.637Z,22.00
2023-03-06T10:17:43.284Z,24.73
2023-03-06T10:21:17.058Z,24.27
2023-03-06T10:24:48.884Z,23.30
2023-03-06T10:28:14.490Z,25.35
2023-03-06T10:31:24.478Z,20.30
2023-03-06T10:34:32.655Z,20.50
2023-03-06T10:37:37.122Z,24.08
2023-03-06T10:40:54.180Z,23.73
2023-03-06T10:44:04.763Z,20.73
2023-03-06T10:47:28.894Z,24.73
2023-03-06T10:50:34.389Z,31.23
2023-03-06T10:53:49.839Z,22.15
2023-03-06T10:56:54.598Z,23.73
2023-03-06T11:00:04.596Z,23.10
2023-03-06T11:03:27.449Z,23.20
2023-03-06T11:06:35.023Z,22.33
2023-03-06T11:09:40.305Z,23.92
2023-03-06T11:12:56.340Z,22.58
2023-03-06T11:16:26.705Z,25.42
2023-03-06T11:19:32.738Z,24.92
2023-03-06T11:22:39.754Z,25.33
2023-03-06T11:25:53.876Z,23.13
2023-03-06T11:29:07.198Z,18.77
2023-03-06T11:32:24.590Z,22.20
2023-03-06T11:35:35.770Z,29.98
2023-03-06T11:38:52.009Z,20.20
2023-03-06T11:42:09.356Z,24.40
2023-03-06T11:45:23.985Z,27.73
2023-03-06T11:48:42.263Z,25.45
2023-03-06T11:51:55.588Z,18.38
2023-03-06T11:55:00.184Z,22.48
2023-03-06T11:58:34.142Z,21.63
2023-03-06T12:01:47.745Z,25.48
2023-03-06T12:05:27.294Z,21.63
2023-03-06T12:09:23.198Z,22.05
2023-03-06T12:13:11.117Z,15.65
2023-03-06T12:16:24.767Z,17.17
2023-03-06T12:19:44.350Z,18.73
2023-03-06T12:23:18.187Z,21.67
2023-03-06T12:26:35.718Z,18.77
2023-03-06T12:30:03.687Z,18.35
2023-03-06T12:33:27.099Z,19.38
2023-03-06T12:36:59.429Z,17.20
2023-03-06T12:40:21.098Z,19.23
2023-03-06T12:43:49.738Z,17.88
2023-03-06T12:46:59.079Z,17.45
2023-03-06T12:50:17.004Z,20.33
2023-03-06T12:53:31.651Z,20.13
2023-03-06T12:56:36.386Z,16.27
2023-03-06T12:59:49.123Z,17.40
2023-03-06T13:02:55.297Z,20.95
2023-03-06T13:06:49.792Z,18.88
2023-03-06T13:10:06.838Z,18.80
2023-03-06T13:13:33.294Z,18.40
2023-03-06T13:16:37.891Z,16.95
2023-03-06T13:19:44.267Z,22.67
2023-03-06T13:22:48.732Z,17.85
2023-03-06T13:25:53.346Z,18.92
2023-03-06T13:28:58.454Z,15.23
2023-03-06T13:32:04.200Z,21.00
2023-03-06T13:35:30.615Z,19.70
2023-03-06T13:38:53.164Z,17.92
2023-03-06T13:41:59.055Z,17.48
2023-03-06T13:45:29.825Z,20.10
2023-03-06T13:48:44.725Z,15.50
2023-03-06T13:51:52.532Z,16.45
2023-03-06T13:55:23.967Z,16.85
2023-03-06T13:58:36.123Z,16.02
2023-03-06T14:02:22.872Z,17.97
2023-03-06T14:05:42.206Z,19.83
2023-03-06T14:08:46.785Z,14.70
2023-03-06T14:12:06.035Z,18.17
2023-03-06T14:15:20.174Z,13.93
2023-03-06T14:18:29.630Z,16.33
2023-03-06T14:21:46.112Z,16.55
2023-03-06T14:25:02.310Z,18.23
2023-03-06T14:28:22.668Z,34.83
2023-03-06T14:31:40.974Z,16.85
2023-03-06T14:34:46.715Z,17.00
2023-03-06T14:37:53.627Z,17.98
2023-03-06T14:41:03.028Z,19.88
2023-03-06T14:44:27.753Z,15.30
2023-03-06T14:47:36.602Z,17.38
2023-03-06T14:50:42.128Z,14.75
2023-03-06T14:53:49.717Z,14.13
2023-03-06T14:57:00.806Z,17.02
2023-03-06T15:00:06.919Z,15.98
2023-03-06T15:03:13.055Z,19.35
2023-03-06T15:06:25.159Z,13.48
2023-03-06T15:09:32.642Z,16.03
2023-03-06T15:12:38.586Z,14.52
2023-03-06T15:15:43.180Z,16.33
2023-03-06T15:19:06.110Z,14.60
2023-03-06T15:22:25.212Z,16.48
2023-03-06T15:25:31.312Z,17.73
2023-03-06T15:28:37.714Z,13.68
2023-03-06T15:31:44.136Z,13.63
2023-03-06T15:35:23.741Z,20.40
2023-03-06T15:38:45.824Z,14.00
2023-03-06T15:41:56.957Z,12.25
2023-03-06T15:45:13.262Z,13.15
2023-03-06T15:48:18.540Z,13.77
2023-03-06T15:51:25.105Z,14.45
2023-03-06T15:54:31.370Z,12.93
2023-03-06T15:57:38.132Z,16.50
2023-03-06T16:00:42.872Z,13.63
2023-03-06T16:03:47.653Z,18.35
2023-03-06T16:06:52.220Z,13.02
2023-03-06T16:09:58.223Z,17.40
2023-03-06T16:13:08.500Z,16.00
2023-03-06T16:16:19.497Z,16.52
2023-03-06T16:19:27.349Z,13.82
2023-03-06T16:22:32.202Z,19.73
2023-03-06T16:25:39.558Z,18.35
2023-03-06T16:28:45.786Z,17.63
2023-03-06T16:31:50.754Z,20.90
2023-03-06T16:34:55.252Z,16.50
2023-03-06T16:38:01.092Z,16.17
2023-03-06T16:41:05.741Z,15.13
2023-03-06T16:44:10.519Z,16.23
2023-03-06T16:47:15.066Z,18.17
2023-03-06T16:50:36.162Z,14.80
2023-03-06T16:53:40.752Z,15.20
2023-03-06T16:56:45.669Z,16.63
2023-03-06T16:59:50.270Z,13.63
2023-03-06T17:02:55.439Z,18.55
2023-03-06T17:06:00.738Z,18.20
2023-03-06T17:09:05.518Z,16.50
2023-03-06T17:12:10.118Z,15.63
2023-03-06T17:15:14.681Z,19.63
2023-03-06T17:18:27.087Z,14.90
2023-03-06T17:21:31.694Z,17.38
2023-03-06T17:24:36.384Z,13.88
2023-03-06T17:27:41.073Z,18.05
2023-03-06T17:30:45.564Z,12.57
2023-03-06T17:33:57.087Z,14.40
2023-03-06T17:37:02.199Z,19.23
2023-03-06T17:40:08.741Z,17.08
2023-03-06T17:43:13.297Z,16.63
2023-03-06T17:46:20.620Z,12.70
2023-03-06T17:49:26.234Z,17.55
2023-03-06T17:52:31.027Z,19.10
2023-03-06T17:55:38.149Z,20.08
2023-03-06T17:58:42.746Z,19.27
2023-03-06T18:01:47.362Z,16.05
2023-03-06T18:04:51.906Z,17.42
2023-03-06T18:07:56.560Z,18.17
2023-03-06T18:11:05.627Z,19.52
2023-03-06T18:14:10.166Z,21.15
2023-03-06T18:17:14.727Z,16.02
2023-03-06T18:20:19.357Z,17.90
2023-03-06T18:23:24.163Z,14.90
2023-03-06T18:26:29.956Z,19.40
2023-03-06T18:29:34.465Z,17.58
2023-03-06T18:32:39.043Z,16.30
2023-03-06T18:35:44.106Z,15.18
2023-03-06T18:38:49.778Z,18.50
2023-03-06T18:41:55.846Z,17.90
2023-03-06T18:45:00.438Z,16.05
2023-03-06T18:48:05.713Z,19.27
2023-03-06T18:51:11.988Z,16.58
2023-03-06T18:54:16.497Z,14.48
2023-03-06T18:57:21.152Z,16.92
2023-03-06T19:00:27.043Z,17.67
2023-03-06T19:03:31.565Z,14.48
2023-03-06T19:06:37.901Z,15.20
2023-03-06T19:09:44.298Z,19.15
2023-03-06T19:12:48.890Z,14.95
2023-03-06T19:15:56.862Z,16.58
2023-03-06T19:19:03.112Z,17.35
2023-03-06T19:22:09.202Z,15.15
2023-03-06T19:25:13.713Z,17.48
2023-03-06T19:28:18.270Z,15.35
2023-03-06T19:31:25.722Z,17.13
2023-03-06T19:34:30.263Z,15.18
2023-03-06T19:37:35.087Z,17.45
2023-03-06T19:40:39.608Z,17.30
2023-03-06T19:43:46.036Z,18.58
2023-03-06T19:46:50.661Z,18.23
2023-03-06T19:49:55.133Z,16.80
2023-03-06T19:52:59.683Z,18.80
2023-03-06T19:56:15.770Z,16.50
2023-03-06T19:59:20.249Z,20.67
2023-03-06T20:02:27.130Z,18.70
2023-03-06T20:05:31.614Z,22.63
2023-03-06T20:08:36.659Z,20.25
2023-03-06T20:11:41.335Z,26.70
2023-03-06T20:14:46.219Z,21.83
2023-03-06T20:17:52.291Z,19.65
2023-03-06T20:21:04.276Z,19.02
2023-03-06T20:24:16.669Z,18.83
2023-03-06T20:27:21.189Z,15.45
2023-03-06T20:30:31.505Z,18.42
2023-03-06T20:33:41.166Z,18.85
2023-03-06T20:36:45.807Z,16.98
2023-03-06T20:39:51.562Z,17.77
2023-03-06T20:42:56.087Z,17.13
2023-03-06T20:46:03.128Z,21.63
2023-03-06T20:49:08.510Z,19.23
2023-03-06T20:52:13.015Z,20.20
2023-03-06T20:55:17.568Z,17.30
2023-03-06T20:58:23.256Z,25.52
2023-03-06T21:01:30.388Z,20.80
2023-03-06T21:04:35.283Z,18.63
2023-03-06T21:07:39.839Z,16.05
2023-03-06T21:10:44.725Z,14.38
2023-03-06T21:13:49.375Z,17.75
2023-03-06T21:16:53.933Z,20.70
2023-03-06T21:19:58.539Z,16.77
2023-03-06T21:23:03.925Z,17.15
2023-03-06T21:26:13.491Z,17.42
2023-03-06T21:29:18.232Z,15.82
2023-03-06T21:32:23.089Z,14.43
2023-03-06T21:35:27.698Z,13.57
2023-03-06T21:38:34.014Z,17.77
2023-03-06T21:41:40.341Z,18.35
2023-03-06T21:44:44.867Z,12.93
2023-03-06T21:47:49.390Z,13.05
2023-03-06T21:51:03.666Z,14.07
2023-03-06T21:54:09.890Z,14.88
2023-03-06T21:57:14.426Z,11.88
2023-03-06T22:00:20.027Z,15.07
2023-03-06T22:03:24.731Z,13.00
2023-03-06T22:06:30.635Z,16.85
2023-03-06T22:09:36.811Z,13.20
2023-03-06T22:12:45.664Z,14.95
2023-03-06T22:15:51.521Z,13.40
2023-03-06T22:18:56.138Z,13.40
2023-03-06T22:22:00.633Z,11.05
2023-03-06T22:25:05.487Z,13.25
2023-03-06T22:28:12.977Z,10.55
2023-03-06T22:31:25.910Z,12.77
2023-03-06T22:37:34.925Z,11.93
2023-03-06T22:40:41.011Z,11.82
2023-03-06T22:43:45.824Z,13.35
2023-03-06T22:46:51.737Z,13.38
2023-03-06T22:49:56.334Z,12.55
2023-03-06T22:53:01.210Z,15.32
2023-03-06T22:56:07.924Z,12.05
2023-03-06T22:59:12.426Z,14.60
2023-03-06T23:02:16.999Z,12.68
2023-03-06T23:05:21.783Z,12.82
2023-03-06T23:08:26.578Z,11.35
2023-03-06T23:11:31.440Z,14.02
2023-03-06T23:14:54.215Z,13.75
2023-03-06T23:18:17.730Z,14.25
2023-03-06T23:25:04.263Z,12.03
2023-03-06T23:28:08.859Z,12.05
2023-03-06T23:31:19.208Z,14.23
2023-03-06T23:34:23.818Z,14.85
2023-03-06T23:37:28.329Z,14.30
2023-03-06T23:40:33.870Z,15.60
2023-03-06T23:43:39.981Z,20.05
2023-03-06T23:46:44.497Z,17.58
2023-03-06T23:49:49.036Z,16.95
2023-03-06T23:52:54.896Z,12.48
2023-03-06T23:56:00.332Z,17.67
2023-03-06T23:59:04.981Z,17.67
